Fortney, Pennsylvania
Current Conditions -  °F | °C
As of 11:56 PM on Saturday 22 Nov 2014 (Local Time) from KCXY Reporting Station
Few Clouds Few Clouds  
Wind Chill: 32°   Ceiling: Unl
Heat Index: 32°   Visibility: 10mi
Dew Point: 23°   Wind: 0mph
Humidity: 69%   Direction: NA
Pressure: 30.21"   Gusts: NA
Location:  40.1328°N, 76.8833°W
Report Text: KCXY 230456Z AUTO 00000KT 10SM FEW110 00/M05 A3021 RMK AO2 SLP234 T00001050 400611089
Loading
Personal Weather Stations






























Interactive Weather Map New forecast layout! Learn more

10-Day Weather Forecast

Advertisements
Track Severe Weather on mobile